createdAt,value
2022-09-09T00:00:58.414Z,17.42
2022-09-09T00:03:31.922Z,17.48
2022-09-09T00:06:14.064Z,17.40
2022-09-09T00:09:05.583Z,17.42
2022-09-09T00:11:45.196Z,17.37
2022-09-09T00:14:28.544Z,17.39
2022-09-09T00:17:08.585Z,17.40
2022-09-09T00:19:46.750Z,17.39
2022-09-09T00:22:22.626Z,17.43
2022-09-09T00:24:57.596Z,17.41
2022-09-09T00:27:36.728Z,17.40
2022-09-09T00:30:21.489Z,17.44
2022-09-09T00:32:59.234Z,17.43
2022-09-09T00:35:34.169Z,17.48
2022-09-09T00:38:10.646Z,17.52
2022-09-09T00:40:50.641Z,17.53
2022-09-09T00:43:33.861Z,17.37
2022-09-09T00:46:21.105Z,17.32
2022-09-09T00:49:04.240Z,17.25
2022-09-09T00:51:51.353Z,17.08
2022-09-09T00:54:37.502Z,16.88
2022-09-09T00:57:30.718Z,16.82
2022-09-09T01:00:22.245Z,16.77
2022-09-09T01:03:11.590Z,16.74
2022-09-09T01:05:51.969Z,16.72
2022-09-09T01:08:47.053Z,16.65
2022-09-09T01:11:26.886Z,16.63
2022-09-09T01:14:14.109Z,16.64
2022-09-09T01:16:45.848Z,16.61
2022-09-09T01:19:25.962Z,16.61
2022-09-09T01:22:12.701Z,16.56
2022-09-09T01:24:59.806Z,16.55
2022-09-09T01:28:06.046Z,16.51
2022-09-09T01:30:39.137Z,16.45
2022-09-09T01:33:17.912Z,16.44
2022-09-09T01:35:55.523Z,16.41
2022-09-09T01:38:29.419Z,16.39
2022-09-09T01:40:59.861Z,16.36
2022-09-09T01:43:53.272Z,16.36
2022-09-09T01:46:26.353Z,16.38
2022-09-09T01:48:59.013Z,16.37
2022-09-09T01:51:29.620Z,16.39
2022-09-09T01:54:02.246Z,16.36
2022-09-09T01:56:45.900Z,16.45
2022-09-09T01:59:40.955Z,16.52
2022-09-09T02:02:16.021Z,16.63
2022-09-09T02:04:54.981Z,16.73
2022-09-09T02:07:43.603Z,16.76
2022-09-09T02:10:34.676Z,16.86
2022-09-09T02:13:18.667Z,16.86
2022-09-09T02:15:57.223Z,16.94
2022-09-09T02:18:33.443Z,16.93
2022-09-09T02:21:03.962Z,16.91
2022-09-09T02:23:36.771Z,16.92
2022-09-09T02:26:20.597Z,16.93
2022-09-09T02:28:57.020Z,16.93
2022-09-09T02:31:29.998Z,16.98
2022-09-09T02:34:07.800Z,16.97
2022-09-09T02:36:40.574Z,16.89
2022-09-09T02:39:13.429Z,16.84
2022-09-09T02:41:46.024Z,16.75
2022-09-09T02:44:18.315Z,16.70
2022-09-09T02:47:22.413Z,16.70
2022-09-09T02:50:05.236Z,16.64
2022-09-09T02:52:46.327Z,16.64
2022-09-09T02:55:26.119Z,16.57
2022-09-09T02:58:01.002Z,16.57
2022-09-09T03:00:33.514Z,16.48
2022-09-09T03:03:09.892Z,16.38
2022-09-09T03:05:42.932Z,16.27
2022-09-09T03:08:15.492Z,16.18
2022-09-09T03:10:46.529Z,16.16
2022-09-09T03:13:20.653Z,16.19
2022-09-09T03:15:52.832Z,16.21
2022-09-09T03:18:29.282Z,16.24
2022-09-09T03:21:00.750Z,16.30
2022-09-09T03:23:32.009Z,16.39
2022-09-09T03:26:05.662Z,16.44
2022-09-09T03:28:45.760Z,16.49
2022-09-09T03:31:20.444Z,16.56
2022-09-09T03:33:53.368Z,16.57
2022-09-09T03:36:24.954Z,16.59
2022-09-09T03:38:55.244Z,16.69
2022-09-09T03:41:27.322Z,16.73
2022-09-09T03:43:58.023Z,16.79
2022-09-09T03:46:30.629Z,16.75
2022-09-09T03:49:03.498Z,16.73
2022-09-09T03:51:37.901Z,16.74
2022-09-09T03:54:11.311Z,16.71
2022-09-09T03:56:42.572Z,16.70
2022-09-09T03:59:15.368Z,16.71
2022-09-09T04:01:46.681Z,16.78
2022-09-09T04:04:21.033Z,16.72
2022-09-09T04:06:52.033Z,16.59
2022-09-09T04:09:22.666Z,16.58
2022-09-09T04:11:54.055Z,16.57
2022-09-09T04:14:27.948Z,16.53
2022-09-09T04:17:00.537Z,16.44
2022-09-09T04:19:33.355Z,16.38
2022-09-09T04:22:03.621Z,16.28
2022-09-09T04:24:33.726Z,16.10
2022-09-09T04:27:04.335Z,15.97
2022-09-09T04:29:37.168Z,15.95
2022-09-09T04:32:07.364Z,16.00
2022-09-09T04:34:40.611Z,16.06
2022-09-09T04:37:10.874Z,16.10
2022-09-09T04:39:42.276Z,16.11
2022-09-09T04:42:14.495Z,16.17
2022-09-09T04:44:46.306Z,16.15
2022-09-09T04:47:16.404Z,16.14
2022-09-09T04:49:49.034Z,16.14
2022-09-09T04:52:19.316Z,16.09
2022-09-09T04:54:49.432Z,16.18
2022-09-09T04:57:19.505Z,16.19
2022-09-09T04:59:51.149Z,16.24
2022-09-09T05:02:21.591Z,16.29
2022-09-09T05:04:55.048Z,16.35
2022-09-09T05:07:25.190Z,16.37
2022-09-09T05:09:55.354Z,16.38
2022-09-09T05:12:26.695Z,16.39
2022-09-09T05:14:57.089Z,16.48
2022-09-09T05:17:28.769Z,16.50
2022-09-09T05:20:01.573Z,16.57
2022-09-09T05:22:34.935Z,16.58
2022-09-09T05:25:06.953Z,16.61
2022-09-09T05:27:38.664Z,16.71
2022-09-09T05:30:10.800Z,16.82
2022-09-09T05:32:41.393Z,16.95
2022-09-09T05:35:14.680Z,17.04
2022-09-09T05:37:47.103Z,17.13
2022-09-09T05:40:17.730Z,17.18
2022-09-09T05:42:47.940Z,17.19
2022-09-09T05:45:18.763Z,17.17
2022-09-09T05:47:49.522Z,17.28
2022-09-09T05:50:22.189Z,17.39
2022-09-09T05:52:58.348Z,17.53
2022-09-09T05:55:28.793Z,17.63
2022-09-09T05:57:59.036Z,17.75
2022-09-09T06:00:30.746Z,17.77
2022-09-09T06:03:01.248Z,17.85
2022-09-09T06:05:35.585Z,17.92
2022-09-09T06:08:05.883Z,17.99
2022-09-09T06:10:36.202Z,18.16
2022-09-09T06:13:06.991Z,18.34
2022-09-09T06:15:37.118Z,18.56
2022-09-09T06:18:07.751Z,18.67
2022-09-09T06:20:40.734Z,18.77
2022-09-09T06:23:10.808Z,18.88
2022-09-09T06:25:41.804Z,19.07
2022-09-09T06:28:12.574Z,19.27
2022-09-09T06:30:42.664Z,19.41
2022-09-09T06:33:13.093Z,19.49
2022-09-09T06:35:46.063Z,19.52
2022-09-09T06:38:16.198Z,19.51
2022-09-09T06:40:46.474Z,19.47
2022-09-09T06:43:20.456Z,19.48
2022-09-09T06:46:01.097Z,19.45
2022-09-09T06:48:32.176Z,19.37
2022-09-09T06:51:10.147Z,19.33
2022-09-09T06:53:45.184Z,19.42
2022-09-09T06:56:25.489Z,19.49
2022-09-09T06:58:59.467Z,19.64
2022-09-09T07:01:35.412Z,19.77
2022-09-09T07:04:10.578Z,19.73
2022-09-09T07:06:47.388Z,19.69
2022-09-09T07:09:25.340Z,19.80
2022-09-09T07:11:58.240Z,19.88
2022-09-09T07:14:29.502Z,19.88
2022-09-09T07:17:03.867Z,20.00
2022-09-09T07:19:39.430Z,20.01
2022-09-09T07:22:12.506Z,20.06
2022-09-09T07:24:44.330Z,20.10
2022-09-09T07:27:14.397Z,20.05
2022-09-09T07:29:46.412Z,20.06
2022-09-09T07:32:18.624Z,20.04
2022-09-09T07:34:48.772Z,20.17
2022-09-09T07:37:21.544Z,20.23
2022-09-09T07:39:52.356Z,20.43
2022-09-09T07:42:23.090Z,20.68
2022-09-09T07:44:55.978Z,20.73
2022-09-09T07:47:26.545Z,20.74
2022-09-09T07:49:57.035Z,20.81
2022-09-09T07:52:35.240Z,20.74
2022-09-09T07:55:10.377Z,20.93
2022-09-09T07:57:41.204Z,21.14
2022-09-09T08:00:15.942Z,21.45
2022-09-09T08:02:51.567Z,22.60
2022-09-09T08:05:23.430Z,23.62
2022-09-09T08:07:57.013Z,23.71
2022-09-09T08:10:27.120Z,23.72
2022-09-09T08:13:16.759Z,23.33
2022-09-09T08:15:48.041Z,22.99
2022-09-09T08:18:18.445Z,22.90
2022-09-09T08:20:49.171Z,23.08
2022-09-09T08:23:22.420Z,23.61
2022-09-09T08:25:53.218Z,23.39
2022-09-09T08:28:23.511Z,23.12
2022-09-09T08:30:54.479Z,23.13
2022-09-09T08:33:26.210Z,23.24
2022-09-09T08:35:57.357Z,23.09
2022-09-09T08:38:30.807Z,23.03
2022-09-09T08:41:16.113Z,23.11
2022-09-09T08:43:51.012Z,23.18
2022-09-09T08:46:36.019Z,23.08
2022-09-09T08:49:21.862Z,23.46
2022-09-09T08:51:54.150Z,26.51
2022-09-09T08:54:50.703Z,28.45
2022-09-09T08:57:27.914Z,29.79
2022-09-09T09:00:00.719Z,29.60
2022-09-09T09:02:42.138Z,30.02
2022-09-09T09:05:26.456Z,31.36
2022-09-09T09:08:08.158Z,31.84
2022-09-09T09:10:51.754Z,32.52
2022-09-09T09:13:34.249Z,32.30
2022-09-09T09:16:18.100Z,31.46
2022-09-09T09:18:48.536Z,31.97
2022-09-09T09:21:25.388Z,32.40
2022-09-09T09:24:01.376Z,32.15
2022-09-09T09:26:39.765Z,32.69
2022-09-09T09:29:17.319Z,32.91
2022-09-09T09:31:52.849Z,33.49
2022-09-09T09:34:24.452Z,32.95
2022-09-09T09:36:59.655Z,32.35
2022-09-09T09:42:31.834Z,28.82
2022-09-09T09:45:13.289Z,27.43
2022-09-09T09:47:43.924Z,27.38
2022-09-09T09:50:24.042Z,27.13
2022-09-09T09:53:00.490Z,28.69
2022-09-09T09:55:35.112Z,28.83
2022-09-09T09:58:13.024Z,29.56
2022-09-09T10:00:53.286Z,28.38
2022-09-09T10:03:30.537Z,27.34
2022-09-09T10:06:02.461Z,26.52
2022-09-09T10:08:33.095Z,25.86
2022-09-09T10:11:34.776Z,26.61
2022-09-09T10:14:20.565Z,26.65
2022-09-09T10:17:11.262Z,28.13
2022-09-09T10:19:46.197Z,27.53
2022-09-09T10:22:31.102Z,28.88
2022-09-09T10:25:28.293Z,29.25
2022-09-09T10:28:31.183Z,29.53
2022-09-09T10:31:20.565Z,30.25
2022-09-09T10:33:55.810Z,30.51
2022-09-09T10:36:29.454Z,31.12
2022-09-09T10:39:07.120Z,31.25
2022-09-09T10:41:49.636Z,31.89
2022-09-09T10:44:35.505Z,32.54
2022-09-09T10:47:39.063Z,32.10
2022-09-09T10:51:00.641Z,31.85
2022-09-09T10:53:51.089Z,32.51
2022-09-09T10:56:25.029Z,31.68
2022-09-09T10:59:01.006Z,31.95
2022-09-09T11:01:36.448Z,31.02
2022-09-09T11:04:17.949Z,29.26
2022-09-09T11:06:56.524Z,27.77
2022-09-09T11:09:31.413Z,28.18
2022-09-09T11:12:05.445Z,30.03
2022-09-09T11:14:42.048Z,31.33
2022-09-09T11:17:18.051Z,32.76
2022-09-09T11:19:51.261Z,33.60
2022-09-09T11:22:32.649Z,34.93
2022-09-09T11:25:09.556Z,35.11
2022-09-09T11:27:49.877Z,35.45
2022-09-09T11:30:53.564Z,35.97
2022-09-09T11:33:45.774Z,37.01
2022-09-09T11:36:54.043Z,37.35
2022-09-09T11:40:04.808Z,33.50
2022-09-09T11:42:35.132Z,34.16
2022-09-09T11:45:24.813Z,35.29
2022-09-09T11:47:59.844Z,33.25
2022-09-09T11:50:36.959Z,31.68
2022-09-09T11:53:26.554Z,29.95
2022-09-09T11:56:14.472Z,32.81
2022-09-09T11:59:00.067Z,33.74
2022-09-09T12:01:34.570Z,34.31
2022-09-09T12:04:38.627Z,33.30
2022-09-09T12:07:30.248Z,31.63
2022-09-09T12:10:08.793Z,32.09
2022-09-09T12:12:44.039Z,32.89
2022-09-09T12:15:30.040Z,34.27
2022-09-09T12:18:03.903Z,33.55
2022-09-09T12:20:40.267Z,32.14
2022-09-09T12:23:39.285Z,29.80
2022-09-09T12:26:31.671Z,28.95
2022-09-09T12:29:18.037Z,28.11
2022-09-09T12:31:58.124Z,29.85
2022-09-09T12:34:37.105Z,31.69
2022-09-09T12:37:15.530Z,31.60
2022-09-09T12:39:52.828Z,33.47
2022-09-09T12:42:27.105Z,34.43
2022-09-09T12:45:02.152Z,36.38
2022-09-09T12:47:44.413Z,34.91
2022-09-09T12:50:25.536Z,33.56
2022-09-09T12:52:59.556Z,31.93
2022-09-09T12:55:36.120Z,31.13
2022-09-09T12:58:10.619Z,30.44
2022-09-09T13:00:40.722Z,30.21
2022-09-09T13:03:23.678Z,29.28
2022-09-09T13:05:54.966Z,28.32
2022-09-09T13:08:26.200Z,29.92
2022-09-09T13:11:03.079Z,33.03
2022-09-09T13:13:40.255Z,34.21
2022-09-09T13:16:24.035Z,33.11
2022-09-09T13:18:54.702Z,30.61
2022-09-09T13:21:36.358Z,29.35
2022-09-09T13:24:08.676Z,28.29
2022-09-09T13:26:40.426Z,27.97
2022-09-09T13:29:23.212Z,27.24
2022-09-09T13:31:58.303Z,26.63
2022-09-09T13:34:33.684Z,26.77
2022-09-09T13:37:06.938Z,27.09
2022-09-09T13:39:39.860Z,27.70
2022-09-09T13:42:26.882Z,30.74
2022-09-09T13:45:01.020Z,32.81
2022-09-09T13:47:35.668Z,33.66
2022-09-09T13:50:24.246Z,34.16
2022-09-09T13:52:59.050Z,35.21
2022-09-09T13:55:31.792Z,34.32
2022-09-09T13:58:04.377Z,34.91
2022-09-09T14:00:38.814Z,36.02
2022-09-09T14:03:09.226Z,35.82
2022-09-09T14:05:39.349Z,34.80
2022-09-09T14:08:11.423Z,35.07
2022-09-09T14:10:41.724Z,35.47
2022-09-09T14:13:13.189Z,35.77
2022-09-09T14:15:45.943Z,35.76
2022-09-09T14:18:17.518Z,35.12
2022-09-09T14:20:47.625Z,34.20
2022-09-09T14:23:17.911Z,34.82
2022-09-09T14:25:48.000Z,34.96
2022-09-09T14:28:25.843Z,35.51
2022-09-09T14:31:11.846Z,36.45
2022-09-09T14:33:41.969Z,34.75
2022-09-09T14:36:12.948Z,34.51
2022-09-09T14:38:43.887Z,31.95
2022-09-09T14:41:15.851Z,30.38
2022-09-09T14:43:46.176Z,28.86
2022-09-09T14:46:21.217Z,27.90
2022-09-09T14:48:55.492Z,27.25
2022-09-09T14:51:28.365Z,26.77
2022-09-09T14:54:01.087Z,26.40
2022-09-09T14:56:35.565Z,26.09
2022-09-09T14:59:06.195Z,25.61
2022-09-09T15:01:39.033Z,25.45
2022-09-09T15:04:10.003Z,25.01
2022-09-09T15:06:41.085Z,24.85
2022-09-09T15:09:11.233Z,24.64
2022-09-09T15:11:42.087Z,24.59
2022-09-09T15:14:13.187Z,24.45
2022-09-09T15:16:45.822Z,24.37
2022-09-09T15:19:15.888Z,24.16
2022-09-09T15:21:45.934Z,24.07
2022-09-09T15:24:17.932Z,24.00
2022-09-09T15:26:48.130Z,23.85
2022-09-09T15:29:18.189Z,23.65
2022-09-09T15:31:50.820Z,23.60
2022-09-09T15:34:20.887Z,23.51
2022-09-09T15:36:51.141Z,23.52
2022-09-09T15:39:22.692Z,23.38
2022-09-09T15:41:52.947Z,23.30
2022-09-09T15:44:26.509Z,23.36
2022-09-09T15:46:59.220Z,23.41
2022-09-09T15:49:31.033Z,23.19
2022-09-09T15:52:04.626Z,23.20
2022-09-09T15:54:39.672Z,24.15
2022-09-09T15:57:15.439Z,25.38
2022-09-09T15:59:46.387Z,26.12
2022-09-09T16:02:19.311Z,26.18
2022-09-09T16:04:49.412Z,25.96
2022-09-09T16:07:19.490Z,25.92
2022-09-09T16:09:52.474Z,25.83
2022-09-09T16:12:22.628Z,25.58
2022-09-09T16:14:52.807Z,25.13
2022-09-09T16:17:25.555Z,24.68
2022-09-09T16:19:55.647Z,24.24
2022-09-09T16:22:25.842Z,23.67
2022-09-09T16:24:55.935Z,23.57
2022-09-09T16:27:26.134Z,23.19
2022-09-09T16:29:56.676Z,22.91
2022-09-09T16:32:29.188Z,22.89
2022-09-09T16:34:59.266Z,22.85
2022-09-09T16:37:29.336Z,22.48
2022-09-09T16:40:00.299Z,22.15
2022-09-09T16:42:30.532Z,22.07
2022-09-09T16:45:00.630Z,21.94
2022-09-09T16:47:33.413Z,21.87
2022-09-09T16:50:03.484Z,21.84
2022-09-09T16:52:33.542Z,21.87
2022-09-09T16:55:04.129Z,21.80
2022-09-09T16:57:33.807Z,21.64
2022-09-09T17:00:05.854Z,21.75
2022-09-09T17:02:39.431Z,21.74
2022-09-09T17:05:10.272Z,21.71
2022-09-09T17:07:40.319Z,21.71
2022-09-09T17:10:12.142Z,21.62
2022-09-09T17:12:42.546Z,21.43
2022-09-09T17:15:14.014Z,21.38
2022-09-09T17:17:50.168Z,21.46
2022-09-09T17:20:20.553Z,21.44
2022-09-09T17:22:50.648Z,21.22
2022-09-09T17:25:20.947Z,20.94
2022-09-09T17:27:52.098Z,20.98
2022-09-09T17:30:22.239Z,20.99
2022-09-09T17:32:54.964Z,20.98
2022-09-09T17:35:25.110Z,21.00
2022-09-09T17:37:57.173Z,21.10
2022-09-09T17:40:27.932Z,21.03
2022-09-09T17:43:00.197Z,21.00
2022-09-09T17:45:34.049Z,20.96
2022-09-09T17:48:08.097Z,20.85
2022-09-09T17:50:38.455Z,20.79
2022-09-09T17:53:08.549Z,20.90
2022-09-09T17:55:38.674Z,20.86
2022-09-09T17:58:08.891Z,20.91
2022-09-09T18:00:39.018Z,20.98
2022-09-09T18:03:12.220Z,21.06
2022-09-09T18:05:42.471Z,21.10
2022-09-09T18:08:13.361Z,21.08
2022-09-09T18:10:45.045Z,21.13
2022-09-09T18:13:15.246Z,21.14
2022-09-09T18:15:49.679Z,21.18
2022-09-09T18:18:23.171Z,21.19
2022-09-09T18:21:02.043Z,21.15
2022-09-09T18:23:32.654Z,21.09
2022-09-09T18:26:02.782Z,21.09
2022-09-09T18:28:32.856Z,21.11
2022-09-09T18:31:02.943Z,21.10
2022-09-09T18:33:39.301Z,21.15
2022-09-09T18:36:12.913Z,21.06
2022-09-09T18:38:42.999Z,20.89
2022-09-09T18:41:18.665Z,20.82
2022-09-09T18:43:49.812Z,20.80
2022-09-09T18:46:22.875Z,20.73
2022-09-09T18:48:57.755Z,20.82
2022-09-09T18:51:33.639Z,20.79
2022-09-09T18:54:08.390Z,20.80
2022-09-09T18:56:39.885Z,20.71
2022-09-09T18:59:15.432Z,20.71
2022-09-09T19:01:46.907Z,20.71
2022-09-09T19:04:22.471Z,20.68
2022-09-09T19:06:58.233Z,20.63
2022-09-09T19:09:34.121Z,20.62
2022-09-09T19:12:06.914Z,20.62
2022-09-09T19:14:39.373Z,20.55
2022-09-09T19:17:09.605Z,20.51
2022-09-09T19:19:44.088Z,20.47
2022-09-09T19:22:14.757Z,20.40
2022-09-09T19:24:45.889Z,20.36
2022-09-09T19:27:15.976Z,20.29
2022-09-09T19:29:46.302Z,20.25
2022-09-09T19:32:51.800Z,20.24
2022-09-09T19:35:11.231Z,20.20
2022-09-09T19:37:42.248Z,20.19
2022-09-09T19:40:13.229Z,20.18
2022-09-09T19:42:44.043Z,20.12
2022-09-09T19:45:14.101Z,20.12
2022-09-09T19:47:44.203Z,20.12
2022-09-09T19:50:17.189Z,20.15
2022-09-09T19:52:47.283Z,20.03
2022-09-09T19:55:17.876Z,19.99
2022-09-09T19:57:47.960Z,19.99
2022-09-09T20:00:19.347Z,19.99
2022-09-09T20:03:15.167Z,20.01
2022-09-09T20:05:44.022Z,20.08
2022-09-09T20:08:14.328Z,20.13
2022-09-09T20:10:54.912Z,20.13
2022-09-09T20:13:25.007Z,20.09
2022-09-09T20:16:04.005Z,19.99
2022-09-09T20:18:36.803Z,19.95
2022-09-09T20:21:12.380Z,19.82
2022-09-09T20:23:43.317Z,19.62
2022-09-09T20:26:17.626Z,19.43
2022-09-09T20:28:50.418Z,19.31
2022-09-09T20:31:23.778Z,19.43
2022-09-09T20:33:55.352Z,19.42
2022-09-09T20:36:31.032Z,19.42
2022-09-09T20:39:04.326Z,19.34
2022-09-09T20:41:36.523Z,19.16
2022-09-09T20:44:12.409Z,19.12
2022-09-09T20:46:48.241Z,19.09
2022-09-09T20:49:22.008Z,19.13
2022-09-09T20:51:56.490Z,19.09
2022-09-09T20:54:30.376Z,19.01
2022-09-09T20:57:01.239Z,19.08
2022-09-09T20:59:34.911Z,19.23
2022-09-09T21:02:05.125Z,19.25
2022-09-09T21:04:38.221Z,19.25
2022-09-09T21:07:11.104Z,19.30
2022-09-09T21:09:41.212Z,19.36
2022-09-09T21:12:11.650Z,19.34
2022-09-09T21:14:41.865Z,19.42
2022-09-09T21:17:12.126Z,19.46
2022-09-09T21:19:42.780Z,19.44
2022-09-09T21:22:15.537Z,19.36
2022-09-09T21:24:46.894Z,19.21
2022-09-09T21:27:17.014Z,19.08
2022-09-09T21:29:47.778Z,19.04
2022-09-09T21:32:17.999Z,18.97
2022-09-09T21:34:48.030Z,18.98
2022-09-09T21:37:21.097Z,18.99
2022-09-09T21:39:51.253Z,19.14
2022-09-09T21:42:21.402Z,19.25
2022-09-09T21:44:51.558Z,19.21
2022-09-09T21:47:22.101Z,19.26
2022-09-09T21:49:52.198Z,19.31
2022-09-09T21:52:25.048Z,19.31
2022-09-09T21:54:55.860Z,19.34
2022-09-09T21:57:25.738Z,19.36
2022-09-09T21:59:55.770Z,19.37
2022-09-09T22:02:28.130Z,19.33
2022-09-09T22:04:58.252Z,19.37
2022-09-09T22:07:32.487Z,19.42
2022-09-09T22:10:02.553Z,19.42
2022-09-09T22:12:32.838Z,19.42
2022-09-09T22:15:02.923Z,19.42
2022-09-09T22:17:33.083Z,19.44
2022-09-09T22:20:04.106Z,19.43
2022-09-09T22:22:36.819Z,19.43
2022-09-09T22:25:08.283Z,19.51
2022-09-09T22:27:38.340Z,19.53
2022-09-09T22:30:10.815Z,19.51
2022-09-09T22:32:40.854Z,19.52
2022-09-09T22:35:13.112Z,19.39
2022-09-09T22:37:45.892Z,19.27
2022-09-09T22:40:16.149Z,19.11
2022-09-09T22:42:49.444Z,18.96
2022-09-09T22:45:22.852Z,19.01
2022-09-09T22:47:52.926Z,18.97
2022-09-09T22:50:23.001Z,18.94
2022-09-09T22:52:56.420Z,18.89
2022-09-09T22:55:26.889Z,18.91
2022-09-09T22:57:57.254Z,18.92
2022-09-09T23:00:29.263Z,18.93
2022-09-09T23:02:59.504Z,18.82
2022-09-09T23:05:30.726Z,18.79
2022-09-09T23:08:03.465Z,18.74
2022-09-09T23:10:33.849Z,18.75
2022-09-09T23:13:04.001Z,18.72
2022-09-09T23:15:34.039Z,18.66
2022-09-09T23:18:04.056Z,18.59
2022-09-09T23:20:34.425Z,18.64
2022-09-09T23:23:07.127Z,18.64
2022-09-09T23:25:38.614Z,18.62
2022-09-09T23:28:08.664Z,18.63
2022-09-09T23:30:38.710Z,18.55
2022-09-09T23:33:08.688Z,18.46
2022-09-09T23:35:38.817Z,18.35
2022-09-09T23:38:11.440Z,18.20
2022-09-09T23:40:41.504Z,18.04
2022-09-09T23:43:11.555Z,18.01
2022-09-09T23:45:41.559Z,17.99
2022-09-09T23:48:11.633Z,18.01
2022-09-09T23:50:41.657Z,17.97
2022-09-09T23:53:15.610Z,18.00
2022-09-09T23:55:46.425Z,18.01
2022-09-09T23:58:16.608Z,17.99
